createdAt,value
2018-03-18T00:02:20.782Z,98105.27
2018-03-18T00:04:49.300Z,98098.56
2018-03-18T00:07:17.781Z,98086.24
2018-03-18T00:09:46.288Z,98137.62
2018-03-18T00:12:14.749Z,98130.92
2018-03-18T00:14:43.243Z,98110.72
2018-03-18T00:17:11.694Z,98093.74
2018-03-18T00:19:40.198Z,98120.03
2018-03-18T00:22:08.657Z,98098.62
2018-03-18T00:24:37.194Z,98085.75
2018-03-18T00:27:05.704Z,98054.05
2018-03-18T00:29:34.201Z,98071.53
2018-03-18T00:32:02.685Z,98062.56
2018-03-18T00:34:31.142Z,98061.74
2018-03-18T00:36:59.638Z,98034.27
2018-03-18T00:39:28.130Z,98029.38
2018-03-18T00:41:56.583Z,98029.23
2018-03-18T00:44:25.074Z,98016.06
2018-03-18T00:46:53.566Z,98019.52
2018-03-18T00:49:22.061Z,98028.47
2018-03-18T00:52:02.306Z,98000.02
2018-03-18T00:54:30.762Z,98016.83
2018-03-18T00:56:59.254Z,98034.47
2018-03-18T00:59:27.760Z,98040.95
2018-03-18T01:01:56.218Z,98060.45
2018-03-18T01:04:24.723Z,98019.13
2018-03-18T01:06:53.218Z,98006.08
2018-03-18T01:09:21.733Z,97987.08
2018-03-18T01:11:50.205Z,97991.54
2018-03-18T01:14:18.697Z,97981.55
2018-03-18T01:16:47.158Z,97965.77
2018-03-18T01:19:15.656Z,97978.39
2018-03-18T01:21:44.115Z,97964.21
2018-03-18T01:24:12.570Z,97962.27
2018-03-18T01:26:41.094Z,97967.06
2018-03-18T01:29:09.558Z,97969.67
2018-03-18T01:31:38.079Z,97972.50
2018-03-18T01:34:06.608Z,97990.15
2018-03-18T01:36:35.061Z,98003.69
2018-03-18T01:39:03.585Z,98007.87
2018-03-18T01:41:32.078Z,97992.44
2018-03-18T01:44:00.538Z,97972.02
2018-03-18T01:46:29.039Z,97982.55
2018-03-18T01:48:57.502Z,97972.70
2018-03-18T01:51:26.004Z,97944.64
2018-03-18T01:53:54.466Z,97961.85
2018-03-18T01:56:22.934Z,97958.59
2018-03-18T01:58:51.430Z,97956.15
2018-03-18T02:01:19.894Z,97946.88
2018-03-18T02:03:48.393Z,97911.03
2018-03-18T02:06:16.882Z,97902.14
2018-03-18T02:08:45.382Z,97920.49
2018-03-18T02:11:13.852Z,97904.91
2018-03-18T02:13:42.377Z,97932.09
2018-03-18T02:16:10.854Z,97878.19
2018-03-18T02:18:39.326Z,97913.18
2018-03-18T02:21:07.827Z,97947.70
2018-03-18T02:23:36.336Z,97920.27
2018-03-18T02:26:04.814Z,97921.31
2018-03-18T02:28:33.310Z,97927.59
2018-03-18T02:31:01.811Z,97907.19
2018-03-18T02:33:30.267Z,97903.05
2018-03-18T02:35:58.793Z,97902.70
2018-03-18T02:38:27.265Z,97907.33
2018-03-18T02:40:55.768Z,97911.51
2018-03-18T02:43:24.247Z,97892.67
2018-03-18T02:45:52.754Z,97904.98
2018-03-18T02:48:21.220Z,97909.64
2018-03-18T02:50:49.718Z,97909.53
2018-03-18T02:53:18.186Z,97892.05
2018-03-18T02:55:46.701Z,97920.95
2018-03-18T02:58:15.483Z,97891.20
2018-03-18T03:00:43.958Z,97921.88
2018-03-18T03:03:12.459Z,97945.94
2018-03-18T03:05:40.937Z,97946.14
2018-03-18T03:08:09.472Z,97973.64
2018-03-18T03:10:37.987Z,97964.41
2018-03-18T03:13:06.498Z,97936.52
2018-03-18T03:15:34.966Z,97930.34
2018-03-18T03:18:03.499Z,97910.37
2018-03-18T03:20:32.010Z,97931.56
2018-03-18T03:23:00.525Z,97914.84
2018-03-18T03:25:29.037Z,97910.61
2018-03-18T03:27:57.498Z,97909.38
2018-03-18T03:30:25.982Z,97918.16
2018-03-18T03:32:54.479Z,97875.44
2018-03-18T03:35:22.962Z,97889.61
2018-03-18T03:37:51.504Z,97863.96
2018-03-18T03:40:19.975Z,97860.91
2018-03-18T03:42:48.490Z,97871.31
2018-03-18T03:45:16.982Z,97864.08
2018-03-18T03:47:45.497Z,97856.62
2018-03-18T03:50:14.005Z,97839.62
2018-03-18T03:52:42.508Z,97840.85
2018-03-18T03:55:11.005Z,97843.34
2018-03-18T03:57:39.514Z,97840.80
2018-03-18T04:00:08.042Z,97806.07
2018-03-18T04:02:36.550Z,97824.91
2018-03-18T04:05:05.113Z,97833.99
2018-03-18T04:07:33.573Z,97779.91
2018-03-18T04:10:02.094Z,97737.97
2018-03-18T04:12:30.587Z,97722.77
2018-03-18T04:14:59.122Z,97759.29
2018-03-18T04:17:27.603Z,97766.16
2018-03-18T04:19:56.074Z,97769.50
2018-03-18T04:22:24.594Z,97796.42
2018-03-18T04:24:53.059Z,97791.20
2018-03-18T04:27:21.569Z,97813.69
2018-03-18T04:29:50.038Z,97809.75
2018-03-18T04:32:18.542Z,97782.87
2018-03-18T04:34:47.042Z,97773.56
2018-03-18T04:37:15.541Z,97781.81
2018-03-18T04:39:44.072Z,97791.17
2018-03-18T04:42:12.589Z,97805.25
2018-03-18T04:44:41.089Z,97798.66
2018-03-18T04:47:09.593Z,97793.92
2018-03-18T04:49:38.102Z,97803.94
2018-03-18T04:52:06.678Z,97799.79
2018-03-18T04:54:35.169Z,97784.21
2018-03-18T04:57:04.430Z,97770.93
2018-03-18T04:59:32.929Z,97785.92
2018-03-18T05:02:01.438Z,97779.60
2018-03-18T05:04:29.962Z,97810.83
2018-03-18T05:06:58.457Z,97803.75
2018-03-18T05:09:27.123Z,97809.77
2018-03-18T05:11:55.631Z,97810.77
2018-03-18T05:14:24.142Z,97773.86
2018-03-18T05:16:52.650Z,97778.64
2018-03-18T05:19:21.119Z,97747.31
2018-03-18T05:21:49.626Z,97795.67
2018-03-18T05:24:18.103Z,97760.28
2018-03-18T05:26:46.621Z,97729.64
2018-03-18T05:29:15.091Z,97765.66
2018-03-18T05:31:43.626Z,97762.78
2018-03-18T05:34:12.109Z,97778.80
2018-03-18T05:36:40.630Z,97759.09
2018-03-18T05:39:09.168Z,97766.45
2018-03-18T05:41:37.648Z,97761.84
2018-03-18T05:44:06.152Z,97797.16
2018-03-18T05:46:34.689Z,97811.26
2018-03-18T05:49:03.145Z,97789.34
2018-03-18T05:51:31.638Z,97829.88
2018-03-18T05:54:00.096Z,97844.30
2018-03-18T05:56:28.605Z,97819.85
2018-03-18T05:58:57.108Z,97797.78
2018-03-18T06:01:25.635Z,97857.70
2018-03-18T06:03:54.138Z,97870.72
2018-03-18T06:06:22.641Z,97846.64
2018-03-18T06:08:51.122Z,97827.52
2018-03-18T06:11:19.622Z,97826.15
2018-03-18T06:13:48.121Z,97857.16
2018-03-18T06:16:16.596Z,97866.31
2018-03-18T06:18:45.112Z,97855.34
2018-03-18T06:21:13.596Z,97861.00
2018-03-18T06:23:42.062Z,97847.44
2018-03-18T06:26:10.566Z,97870.53
2018-03-18T06:28:39.104Z,97875.33
2018-03-18T06:31:07.598Z,97881.97
2018-03-18T06:33:36.163Z,97853.78
2018-03-18T06:36:04.702Z,97861.09
2018-03-18T06:38:33.170Z,97860.64
2018-03-18T06:41:01.670Z,97878.48
2018-03-18T06:43:31.133Z,97873.81
2018-03-18T06:45:59.638Z,97874.94
2018-03-18T06:48:28.106Z,97931.95
2018-03-18T06:50:56.606Z,97913.81
2018-03-18T06:53:25.067Z,97911.56
2018-03-18T06:55:53.584Z,97916.30
2018-03-18T06:58:22.058Z,97935.09
2018-03-18T07:00:50.576Z,97942.23
2018-03-18T07:03:19.046Z,97981.86
2018-03-18T07:05:47.518Z,97954.42
2018-03-18T07:08:16.042Z,97965.89
2018-03-18T07:10:44.519Z,97965.61
2018-03-18T07:13:13.055Z,97989.78
2018-03-18T07:15:41.566Z,98013.64
2018-03-18T07:18:10.034Z,97985.81
2018-03-18T07:20:38.533Z,97978.18
2018-03-18T07:23:07.043Z,97989.31
2018-03-18T07:25:35.528Z,97954.23
2018-03-18T07:28:04.014Z,97964.38
2018-03-18T07:30:32.518Z,97941.77
2018-03-18T07:33:00.997Z,97929.27
2018-03-18T07:35:29.498Z,97922.20
2018-03-18T07:37:57.999Z,97929.84
2018-03-18T07:40:26.498Z,97918.08
2018-03-18T07:42:54.980Z,97944.50
2018-03-18T07:45:23.486Z,97971.38
2018-03-18T07:47:51.987Z,97941.31
2018-03-18T07:50:20.477Z,97947.41
2018-03-18T07:52:48.930Z,97918.52
2018-03-18T07:55:17.438Z,97857.90
2018-03-18T07:57:45.908Z,97910.06
2018-03-18T08:00:14.410Z,97877.80
2018-03-18T08:02:42.862Z,97882.87
2018-03-18T08:05:11.350Z,97907.95
2018-03-18T08:07:39.844Z,97892.30
2018-03-18T08:10:08.329Z,97902.50
2018-03-18T08:12:36.786Z,97926.33
2018-03-18T08:15:05.238Z,97909.47
2018-03-18T08:17:33.742Z,97905.67
2018-03-18T08:20:02.198Z,97926.58
2018-03-18T08:22:30.673Z,97915.46
2018-03-18T08:24:59.188Z,97921.24
2018-03-18T08:27:27.678Z,97923.64
2018-03-18T08:29:56.166Z,97905.80
2018-03-18T08:32:24.665Z,97910.88
2018-03-18T08:34:53.166Z,97919.13
2018-03-18T08:37:21.628Z,97943.50
2018-03-18T08:39:50.090Z,97945.70
2018-03-18T08:42:28.311Z,97962.78
2018-03-18T08:44:56.793Z,97990.33
2018-03-18T08:47:25.300Z,97984.58
2018-03-18T08:49:53.751Z,97972.02
2018-03-18T08:52:22.270Z,97969.27
2018-03-18T08:54:50.760Z,97961.38
2018-03-18T08:57:19.246Z,97959.09
2018-03-18T08:59:47.737Z,97950.05
2018-03-18T09:02:16.231Z,97951.33
2018-03-18T09:04:44.693Z,97963.93
2018-03-18T09:07:13.206Z,97965.67
2018-03-18T09:09:41.698Z,97970.50
2018-03-18T09:12:10.145Z,97955.77
2018-03-18T09:14:38.634Z,97974.40
2018-03-18T09:17:07.090Z,97982.77
2018-03-18T09:19:35.577Z,97987.05
2018-03-18T09:22:04.058Z,97975.59
2018-03-18T09:24:32.546Z,97979.94
2018-03-18T09:27:01.030Z,97975.86
2018-03-18T09:29:29.482Z,97989.73
2018-03-18T09:31:57.975Z,97970.16
2018-03-18T09:34:26.426Z,97951.66
2018-03-18T09:36:54.929Z,97964.16
2018-03-18T09:39:23.416Z,97982.36
2018-03-18T09:41:51.944Z,97995.65
2018-03-18T09:44:20.443Z,97999.20
2018-03-18T09:46:48.898Z,98011.47
2018-03-18T09:49:17.406Z,97996.76
2018-03-18T09:51:45.913Z,98014.50
2018-03-18T09:54:14.372Z,97999.21
2018-03-18T09:56:42.865Z,98002.47
2018-03-18T09:59:11.322Z,98031.15
2018-03-18T10:01:39.851Z,98003.98
2018-03-18T10:04:08.318Z,98016.41
2018-03-18T10:06:36.777Z,98005.72
2018-03-18T10:09:05.318Z,98006.83
2018-03-18T10:11:33.786Z,98032.57
2018-03-18T10:14:02.283Z,98032.09
2018-03-18T10:16:30.754Z,98026.36
2018-03-18T10:18:59.277Z,98026.59
2018-03-18T10:21:27.735Z,98016.79
2018-03-18T10:23:56.230Z,98027.91
2018-03-18T10:26:24.719Z,98035.73
2018-03-18T10:28:53.225Z,98037.26
2018-03-18T10:31:21.739Z,98023.22
2018-03-18T10:33:50.194Z,98001.02
2018-03-18T10:36:18.702Z,98025.31
2018-03-18T10:38:47.171Z,98033.41
2018-03-18T10:41:15.626Z,98014.47
2018-03-18T10:43:44.125Z,98019.83
2018-03-18T10:46:12.622Z,98018.61
2018-03-18T10:48:41.112Z,98030.98
2018-03-18T10:51:09.614Z,98047.81
2018-03-18T10:53:38.091Z,98045.52
2018-03-18T10:56:06.630Z,98047.78
2018-03-18T10:58:35.117Z,98047.30
2018-03-18T11:01:09.023Z,98054.80
2018-03-18T11:03:37.545Z,98058.77
2018-03-18T11:06:14.812Z,98069.45
2018-03-18T11:08:43.305Z,98070.97
2018-03-18T11:11:11.758Z,98066.94
2018-03-18T11:13:40.254Z,98072.45
2018-03-18T11:16:08.726Z,98080.98
2018-03-18T11:18:37.222Z,98088.09
2018-03-18T11:21:05.708Z,98090.52
2018-03-18T11:23:34.226Z,98089.05
2018-03-18T11:26:02.682Z,98089.70
2018-03-18T11:28:31.182Z,98098.16
2018-03-18T11:30:59.634Z,98096.23
2018-03-18T11:33:28.102Z,98104.97
2018-03-18T11:35:56.599Z,98113.18
2018-03-18T11:38:25.089Z,98110.91
2018-03-18T11:40:53.603Z,98109.05
2018-03-18T11:43:22.095Z,98125.04
2018-03-18T11:45:50.598Z,98128.34
2018-03-18T11:48:19.057Z,98133.75
2018-03-18T11:50:47.540Z,98153.66
2018-03-18T11:53:16.068Z,98162.59
2018-03-18T11:55:44.566Z,98169.50
2018-03-18T11:58:13.066Z,98175.37
2018-03-18T12:00:41.563Z,98182.85
2018-03-18T12:03:10.116Z,98184.72
2018-03-18T12:05:38.614Z,98201.70
2018-03-18T12:08:07.074Z,98217.06
2018-03-18T12:10:35.526Z,98225.05
2018-03-18T12:13:04.036Z,98236.78
2018-03-18T12:15:32.498Z,98222.73
2018-03-18T12:18:01.007Z,98247.31
2018-03-18T12:20:29.525Z,98254.03
2018-03-18T12:22:58.006Z,98248.05
2018-03-18T12:25:26.506Z,98262.08
2018-03-18T12:27:54.998Z,98251.02
2018-03-18T12:30:23.486Z,98271.98
2018-03-18T12:32:51.950Z,98279.52
2018-03-18T12:35:20.454Z,98284.38
2018-03-18T12:37:48.911Z,98290.50
2018-03-18T12:40:34.990Z,98287.74
2018-03-18T12:46:03.186Z,98289.78
2018-03-18T12:48:31.799Z,98289.00
2018-03-18T12:51:00.491Z,98295.40
2018-03-18T12:53:29.050Z,98305.62
2018-03-18T12:55:57.513Z,98298.98
2018-03-18T12:58:26.002Z,98295.72
2018-03-18T13:00:54.457Z,98293.80
2018-03-18T13:03:22.914Z,98281.86
2018-03-18T13:05:51.426Z,98287.77
2018-03-18T13:08:19.922Z,98271.47
2018-03-18T13:10:48.377Z,98256.69
2018-03-18T13:13:17.237Z,98244.62
2018-03-18T13:15:45.731Z,98211.11
2018-03-18T13:18:14.210Z,98155.80
2018-03-18T13:20:42.710Z,98167.52
2018-03-18T13:23:11.168Z,98176.91
2018-03-18T13:25:39.656Z,98192.10
2018-03-18T13:28:08.102Z,98202.53
2018-03-18T13:30:36.606Z,98193.78
2018-03-18T13:33:05.064Z,98189.80
2018-03-18T13:35:33.514Z,98188.78
2018-03-18T13:38:02.015Z,98179.16
2018-03-18T13:40:30.478Z,98164.45
2018-03-18T13:42:59.009Z,98168.38
2018-03-18T13:45:27.542Z,98170.81
2018-03-18T13:47:56.008Z,98172.28
2018-03-18T13:50:24.530Z,98175.95
2018-03-18T13:52:52.994Z,98185.15
2018-03-18T13:55:21.496Z,98193.09
2018-03-18T13:57:49.992Z,98196.18
2018-03-18T14:00:18.474Z,98205.06
2018-03-18T14:02:46.929Z,98218.00
2018-03-18T14:05:15.413Z,98227.33
2018-03-18T14:07:43.872Z,98232.48
2018-03-18T14:10:12.358Z,98230.06
2018-03-18T14:12:40.859Z,98224.43
2018-03-18T14:15:09.354Z,98243.84
2018-03-18T14:17:37.858Z,98250.28
2018-03-18T14:20:06.369Z,98257.81
2018-03-18T14:22:34.890Z,98269.09
2018-03-18T14:25:03.378Z,98281.39
2018-03-18T14:27:31.878Z,98282.06
2018-03-18T14:30:00.330Z,98289.62
2018-03-18T14:32:28.854Z,98284.42
2018-03-18T14:34:57.373Z,98281.92
2018-03-18T14:37:25.899Z,98285.19
2018-03-18T14:39:54.378Z,98288.86
2018-03-18T14:42:22.897Z,98286.66
2018-03-18T14:44:51.383Z,98289.78
2018-03-18T14:47:19.892Z,98295.16
2018-03-18T14:49:48.357Z,98304.36
2018-03-18T14:52:16.854Z,98314.23
2018-03-18T14:54:45.314Z,98321.59
2018-03-18T14:57:13.850Z,98313.56
2018-03-18T14:59:42.350Z,98304.13
2018-03-18T15:02:10.806Z,98303.99
2018-03-18T15:04:39.314Z,98311.30
2018-03-18T15:07:07.796Z,98313.50
2018-03-18T15:09:36.300Z,98316.40
2018-03-18T15:12:04.758Z,98310.77
2018-03-18T15:14:33.246Z,98310.20
2018-03-18T15:17:01.755Z,98313.59
2018-03-18T15:19:30.222Z,98317.09
2018-03-18T15:21:58.678Z,98323.53
2018-03-18T15:24:27.194Z,98327.53
2018-03-18T15:26:55.651Z,98346.03
2018-03-18T15:29:24.118Z,98347.47
2018-03-18T15:31:52.622Z,98346.49
2018-03-18T15:34:21.118Z,98349.42
2018-03-18T15:36:49.632Z,98354.02
2018-03-18T15:39:18.092Z,98363.81
2018-03-18T15:41:46.589Z,98346.56
2018-03-18T15:44:15.074Z,98355.07
2018-03-18T15:46:43.529Z,98360.23
2018-03-18T15:49:12.030Z,98373.89
2018-03-18T15:51:40.481Z,98379.61
2018-03-18T15:54:09.102Z,98378.19
2018-03-18T15:56:37.570Z,98383.31
2018-03-18T15:59:06.064Z,98382.14
2018-03-18T16:01:34.526Z,98384.53
2018-03-18T16:04:03.013Z,98387.31
2018-03-18T16:06:31.467Z,98390.11
2018-03-18T16:08:59.958Z,98389.62
2018-03-18T16:11:28.410Z,98391.95
2018-03-18T16:13:56.913Z,98395.25
2018-03-18T16:16:25.385Z,98398.09
2018-03-18T16:18:53.878Z,98400.45
2018-03-18T16:21:22.338Z,98407.73
2018-03-18T16:23:50.901Z,98406.71
2018-03-18T16:26:19.354Z,98412.79
2018-03-18T16:28:47.802Z,98417.36
2018-03-18T16:31:17.201Z,98426.52
2018-03-18T16:33:45.690Z,98430.14
2018-03-18T16:36:14.148Z,98440.33
2018-03-18T16:38:42.653Z,98434.14
2018-03-18T16:41:11.105Z,98440.26
2018-03-18T16:43:39.604Z,98443.56
2018-03-18T16:46:08.062Z,98447.45
2018-03-18T16:48:36.529Z,98444.53
2018-03-18T16:51:05.021Z,98438.69
2018-03-18T16:53:33.509Z,98437.82
2018-03-18T16:56:01.962Z,98446.00
2018-03-18T16:58:30.450Z,98429.23
2018-03-18T17:00:58.898Z,98444.28
2018-03-18T17:03:27.428Z,98444.57
2018-03-18T17:05:55.891Z,98455.08
2018-03-18T17:08:24.386Z,98461.97
2018-03-18T17:10:52.890Z,98470.45
2018-03-18T17:13:21.346Z,98478.52
2018-03-18T17:15:49.805Z,98484.69
2018-03-18T17:18:18.296Z,98486.63
2018-03-18T17:20:46.755Z,98486.16
2018-03-18T17:23:15.306Z,98491.20
2018-03-18T17:25:43.776Z,98498.14
2018-03-18T17:28:12.294Z,98498.60
2018-03-18T17:30:40.750Z,98504.55
2018-03-18T17:33:09.201Z,98510.20
2018-03-18T17:35:37.694Z,98519.51
2018-03-18T17:38:06.206Z,98523.52
2018-03-18T17:40:34.696Z,98534.72
2018-03-18T17:43:03.155Z,98535.84
2018-03-18T17:48:42.218Z,98553.92
2018-03-18T17:51:22.568Z,98551.88
2018-03-18T17:54:03.031Z,98557.61
2018-03-18T17:56:37.363Z,98559.02
2018-03-18T17:59:05.928Z,98567.02
2018-03-18T18:01:34.465Z,98581.22
2018-03-18T18:04:02.925Z,98579.57
2018-03-18T18:06:31.486Z,98578.61
2018-03-18T18:09:00.063Z,98574.31
2018-03-18T18:11:28.649Z,98575.03
2018-03-18T18:13:57.232Z,98571.13
2018-03-18T18:16:25.702Z,98572.66
2018-03-18T18:18:54.302Z,98567.52
2018-03-18T18:21:22.782Z,98562.14
2018-03-18T18:23:51.286Z,98561.80
2018-03-18T18:26:19.786Z,98562.14
2018-03-18T18:28:48.281Z,98560.69
2018-03-18T18:31:16.779Z,98568.52
2018-03-18T18:33:45.242Z,98568.42
2018-03-18T18:36:13.776Z,98575.84
2018-03-18T18:38:42.250Z,98585.58
2018-03-18T18:41:10.773Z,98586.16
2018-03-18T18:43:39.281Z,98579.48
2018-03-18T18:46:07.751Z,98595.12
2018-03-18T18:48:36.258Z,98592.84
2018-03-18T18:51:04.754Z,98582.81
2018-03-18T18:53:33.297Z,98586.23
2018-03-18T18:56:01.771Z,98584.39
2018-03-18T18:58:30.266Z,98598.02
2018-03-18T19:00:58.727Z,98604.69
2018-03-18T19:03:27.240Z,98590.31
2018-03-18T19:05:55.714Z,98602.53
2018-03-18T19:08:24.210Z,98602.02
2018-03-18T19:10:52.669Z,98602.99
2018-03-18T19:13:21.174Z,98608.70
2018-03-18T19:15:49.638Z,98609.40
2018-03-18T19:18:18.131Z,98607.38
2018-03-18T19:20:46.630Z,98606.84
2018-03-18T19:23:15.128Z,98608.89
2018-03-18T19:25:43.609Z,98611.11
2018-03-18T19:28:12.151Z,98627.81
2018-03-18T19:30:40.618Z,98646.99
2018-03-18T19:33:09.113Z,98650.00
2018-03-18T19:35:37.581Z,98654.88
2018-03-18T19:38:06.086Z,98648.48
2018-03-18T19:40:34.545Z,98641.83
2018-03-18T19:43:03.056Z,98645.92
2018-03-18T19:45:31.529Z,98651.20
2018-03-18T19:48:00.037Z,98650.53
2018-03-18T19:50:28.501Z,98654.86
2018-03-18T19:52:57.014Z,98660.97
2018-03-18T19:55:25.481Z,98658.26
2018-03-18T19:57:53.992Z,98646.58
2018-03-18T20:00:23.390Z,98654.08
2018-03-18T20:02:51.890Z,98656.80
2018-03-18T20:05:20.351Z,98663.17
2018-03-18T20:07:48.862Z,98660.72
2018-03-18T20:10:17.380Z,98663.19
2018-03-18T20:12:45.850Z,98657.62
2018-03-18T20:15:14.361Z,98664.30
2018-03-18T20:17:42.862Z,98661.02
2018-03-18T20:20:11.358Z,98656.80
2018-03-18T20:22:39.862Z,98655.30
2018-03-18T20:25:08.366Z,98677.47
2018-03-18T20:27:36.847Z,98680.59
2018-03-18T20:30:05.390Z,98691.33
2018-03-18T20:32:33.870Z,98705.36
2018-03-18T20:35:02.364Z,98718.27
2018-03-18T20:37:30.866Z,98719.47
2018-03-18T20:39:59.866Z,98714.73
2018-03-18T20:42:28.330Z,98722.89
2018-03-18T20:44:56.826Z,98728.33
2018-03-18T20:47:25.278Z,98734.44
2018-03-18T20:49:53.782Z,98743.67
2018-03-18T20:52:22.262Z,98743.56
2018-03-18T20:54:50.709Z,98742.19
2018-03-18T20:57:19.193Z,98745.31
2018-03-18T20:59:47.666Z,98746.80
2018-03-18T21:02:16.268Z,98758.47
2018-03-18T21:04:44.716Z,98755.98
2018-03-18T21:07:13.171Z,98758.99
2018-03-18T21:09:41.650Z,98754.20
2018-03-18T21:12:10.094Z,98758.97
2018-03-18T21:14:38.608Z,98755.82
2018-03-18T21:17:07.054Z,98764.88
2018-03-18T21:19:35.533Z,98761.07
2018-03-18T21:22:03.982Z,98763.63
2018-03-18T21:24:32.466Z,98760.63
2018-03-18T21:27:00.932Z,98765.90
2018-03-18T21:29:29.422Z,98768.20
2018-03-18T21:31:57.906Z,98774.73
2018-03-18T21:34:38.040Z,98771.44
2018-03-18T21:37:06.566Z,98765.52
2018-03-18T21:39:35.061Z,98763.05
2018-03-18T21:42:03.550Z,98780.44
2018-03-18T21:44:32.046Z,98772.24
2018-03-18T21:47:00.537Z,98785.66
2018-03-18T21:49:28.986Z,98790.26
2018-03-18T21:51:57.456Z,98785.83
2018-03-18T21:54:25.946Z,98768.45
2018-03-18T21:56:54.398Z,98785.06
2018-03-18T21:59:22.884Z,98775.43
2018-03-18T22:01:51.338Z,98776.63
2018-03-18T22:04:19.844Z,98778.08
2018-03-18T22:06:48.341Z,98778.08
2018-03-18T22:09:16.840Z,98782.78
2018-03-18T22:11:45.339Z,98778.98
2018-03-18T22:14:13.830Z,98759.20
2018-03-18T22:16:42.319Z,98773.16
2018-03-18T22:19:10.824Z,98770.98
2018-03-18T22:21:39.314Z,98779.03
2018-03-18T22:24:07.778Z,98776.01
2018-03-18T22:26:36.229Z,98765.32
2018-03-18T22:29:04.767Z,98775.72
2018-03-18T22:31:33.268Z,98785.98
2018-03-18T22:34:01.766Z,98779.30
2018-03-18T22:36:30.220Z,98774.81
2018-03-18T22:38:58.707Z,98779.50
2018-03-18T22:41:27.223Z,98777.48
2018-03-18T22:43:55.674Z,98776.06
2018-03-18T22:46:24.122Z,98782.89
2018-03-18T22:48:52.622Z,98791.33
2018-03-18T22:51:21.120Z,98797.26
2018-03-18T22:53:49.614Z,98822.19
2018-03-18T22:56:18.072Z,98817.52
2018-03-18T22:58:46.569Z,98815.05
2018-03-18T23:01:15.058Z,98814.34
2018-03-18T23:03:43.510Z,98814.72
2018-03-18T23:06:12.026Z,98832.26
2018-03-18T23:08:40.482Z,98808.11
2018-03-18T23:11:08.954Z,98816.95
2018-03-18T23:13:37.464Z,98815.98
2018-03-18T23:16:05.926Z,98796.37
2018-03-18T23:18:34.385Z,98822.63
2018-03-18T23:21:02.870Z,98819.50
2018-03-18T23:23:31.338Z,98834.73
2018-03-18T23:25:59.846Z,98832.18
2018-03-18T23:28:28.290Z,98806.72
2018-03-18T23:30:56.740Z,98829.58
2018-03-18T23:33:25.226Z,98836.98
2018-03-18T23:35:53.691Z,98835.33
2018-03-18T23:38:22.178Z,98828.93
2018-03-18T23:40:50.654Z,98824.11
2018-03-18T23:43:19.162Z,98824.27
2018-03-18T23:45:47.652Z,98817.16
2018-03-18T23:48:16.707Z,98818.52
2018-03-18T23:50:48.950Z,98821.27
2018-03-18T23:53:17.437Z,98823.05
2018-03-18T23:55:45.918Z,98811.74
2018-03-18T23:58:14.383Z,98816.80
